עמוד ראשי
METAR-TAF:

METAR-TAF

שדות תעופה :

שטוטגרט, גרמניה

נמל התעופה שטוטגרט

קו רוחב: 48-41N, קו אורך: 009-13E, גובה: 396מטר

תצפית מזג אוויר נוכחית

הדו"ח נערך לפני 12דקות, בשעה 04:50 UTC
רוח 6קשר מכיוון צפון-מערב, משתנה בין מערב/דרום-מערב ו צפון/צפון-מערב
טמפרטורת 2 צלסיוס
לחות 100%
לחץ 1013 hPa
ראות: 4500מטר
עננים בינוניים בגובה 500רגל
גשם קל

METAR: EDDS 270450Z 32006KT 250V340 4500 -RA BKN005 02/02 Q1013 RERA TEMPO 6000

זמן: 07:02 (05:02 UTC)

תחזית

הדו"ח נערך לפני 1 שעות ו 29דקות, בשעה 03:33 UTC
תחזית בתוקף מ 27 ב 03 UTC עד 27 ב 24 UTC
רוח 4קשר מכיוון צפון/צפון-מערב
ראות 10 קילומטר או יותר
עננים פזורים בגובה 2000רגל
זמנית מ -
27 ב 03 UTC עד 27 ב 07 UTC
ראות: 4000מטר
עננים בינוניים בגובה 800רגל
גשם
זמנית מ -
27 ב 16 UTC עד 27 ב 24 UTC
ראות: 4000מטר
עננים בינוניים בגובה 1200רגל
גשם

TAF: EDDS 270333Z 2703/2724 33004KT 9999 SCT020 TEMPO 2703/2707 4000 RA BKN008 TEMPO 2716/2724 4000 RA BKN012

תצפיות ותחזיות מזג אוויר לגבי יותר מ- 4,000 שדות תעופה ברחבי העולם. דוחות METAR ו- TAF.

התחנות הזמינות מסומנות בנקודות צהובות ואדומות על גבי המפה.

העבר את העכבר לנקודה הצבעונית על מנת לראות את שם התחנה.

לאחר מכן, לחץ כדי לראות את תוכן ואת תחזיות מזג האוויר.

כדי לשנות את המפה: לחץ על הכפתורים הירוקים עם הפלוס השחור כדי להתקרב; על הכפתור הירוק עם המקף כדי להתרחק; או בחיצים הירוקים למפות סמוכות.


METAR-TAF: